Angler Guide Weather for Waterton -
Waterton, Alberta Current Weather Conditions
Enter your "Place, State", US Zip Code or ICAO:  
Forecast Information Radar Information
Waterton, Alberta, Canada  Lat: 49.12N, Lon: 113.8W
ICAO Used: CYQL
Current Conditions
Updated:
Sun & Moon Information:
Temp: N/A
Humidity: N/A
Wind Speed: N/A
Barometer: N/A
Dewpoint: N/A
Heat Index: N/A
Wind Chill: N/A
Civil Twilight: 7:29 AM MDT
Moonrise: 8:46 AM MDT Moon Phase:
Waxing Crescent Moon
Waxing Crescent Moon
Moonset: 7:31 PM MDT
Sunrise: 8:02 AM MDT
Sunset: 6:35 PM MDT
Civil Twilight: 7:08 PM MDT
Forecast for Waterton, AB:
(Forecast based on TAF for )
0312 PM MDT MON NOV 06 2006
  
AFTERNOONEVENINGOVERNIGHT
MOSTLY CLOUDYMOSTLY CLOUDYMOSTLY CLOUDY
Mostly
Cloudy
Mostly
Cloudy
Mostly
Cloudy
TAF based forecast:
Dated: 0312 PM MDT MON NOV 06 2006
Afternoon...Mostly cloudy with winds variable at 3 mph.
Evening...Mostly cloudy with winds variable at 3 mph. Then becoming mostly cloudy with winds from the south south west at 17 mph.
Overnight...Becoming mostly cloudy with winds from the south south west at 17 mph.
Original Encoded TAF:
Dated: 0312 PM MDT MON NOV 06 2006
2006/11/06 21:12
CYQL 062112Z 062106 VRB03KT P6SM SCT030 BKN120 BECMG 0204 24015KT=




Powered by Angler Guide.com
Copyright 2007, all rights reserved.